Tanacross, Alaska
Current Conditions -  °F | °C
As of 1:53 PM on Tuesday 25 Nov 2014 (Local Time) from PAOR Reporting Station
Broken Clouds Broken Clouds  
Wind Chill: -6°   Ceiling: 9000
Heat Index: -6°   Visibility: 10mi
Dew Point: -10°   Wind: 0mph
Humidity: 83%   Direction: NA
Pressure: 30.2"   Gusts: NA
Location:  63.38°N, 143.36°W
Report Text: PAOR 252253Z 00000KT 10SM SCT070 BKN090 BKN140 M21/M23 A3020 RMK AO2 SLP310 SH DSNT SW T12111233
Loading
Personal Weather Stations






























Interactive Weather Map New forecast layout! Learn more

10-Day Weather Forecast

Advertisements
Track Severe Weather on mobile